Time;durP1;ratioP1;P1;durP2;ratioP2;P2;SDS_P1;SDS_P2;PMS_P1;PMS_P2;Temp;Humidity;BMP_temperature;BMP_pressure;BME280_temperature;BME280_humidity;BME280_pressure;Samples;Min_cycle;Max_cycle;Signal;HPM_P1;HPM_P2
2021/06/25 00:03:00;;;;;;;;;;;;;;;;;;;;;
2021/06/25 00:05:51;;;;;;;51.00;19.73;;;15.80;96.20;;;;;;4743715;30;20925;-85
2021/06/25 00:11:43;;;;;;;;;;;;;;;;;;;;;
2021/06/25 00:14:12;;;;;;;47.87;21.90;;;15.80;97.70;;;;;;4791063;29;20467;-85
2021/06/25 00:16:51;;;;;;;;;;;;;;;;;;;;;
2021/06/25 00:19:50;;;;;;;52.70;22.60;;;15.50;98.40;;;;;;4759942;29;20538;-85
2021/06/25 00:22:39;;;;;;;47.70;23.33;;;15.50;98.40;;;;;;4779366;29;20471;-85
2021/06/25 00:25:50;;;;;;;57.03;25.33;;;15.30;99.90;;;;;;4804766;29;20458;-85
2021/06/25 00:28:29;;;;;;;;;;;;;;;;;;;;;
2021/06/25 00:30:56;;;;;;;46.60;25.50;;;15.20;99.90;;;;;;4804759;29;20453;-85
2021/06/25 00:33:26;;;;;;;56.83;28.33;;;15.00;99.90;;;;;;4834496;29;20505;-85
2021/06/25 00:36:01;;;;;;;52.30;32.60;;;14.90;99.90;;;;;;4861701;29;20505;-85
2021/06/25 00:39:02;;;;;;;54.03;36.10;;;14.70;99.90;;;;;;4860621;29;20494;-85
2021/06/25 00:41:33;;;;;;;50.93;36.20;;;14.60;99.90;;;;;;4843594;29;20477;-85
2021/06/25 00:44:23;;;;;;;;;;;;;;;;;;;;;
2021/06/25 00:46:58;;;;;;;59.00;43.97;;;14.30;99.90;;;;;;4853811;29;20459;-85
2021/06/25 00:49:31;;;;;;;56.00;49.40;;;14.40;99.90;;;;;;4861548;29;20478;-85
2021/06/25 00:52:12;;;;;;;61.03;53.20;;;14.20;99.90;;;;;;4861393;29;20994;-85
2021/06/25 00:54:57;;;;;;;67.30;60.30;;;14.00;99.90;;;;;;4860238;29;20467;-85
2021/06/25 00:57:57;;;;;;;;;;;;;;;;;;;;;
2021/06/25 01:04:32;;;;;;;;;;;;;;;;;;;;;
2021/06/25 01:07:30;;;;;;;;;;;;;;;;;;;;;
2021/06/25 01:10:06;;;;;;;104.50;96.47;;;13.50;99.90;;;;;;4827496;29;20458;-84
2021/06/25 01:12:42;;;;;;;108.47;100.00;;;13.40;99.90;;;;;;4860939;29;20499;-85
2021/06/25 01:15:50;;;;;;;;;;;;;;;;;;;;;
2021/06/25 01:18:43;;;;;;;112.27;103.37;;;13.20;99.90;;;;;;4853269;29;20482;-85
2021/06/25 01:21:34;;;;;;;113.67;104.57;;;13.10;99.90;;;;;;4803899;29;20466;-85
2021/06/25 01:24:20;;;;;;;122.37;114.40;;;13.20;99.90;;;;;;4845989;29;20560;-85
2021/06/25 01:27:06;;;;;;;136.80;127.30;;;13.00;99.90;;;;;;4860989;29;20839;-85
2021/06/25 01:29:46;;;;;;;135.37;125.67;;;13.00;99.90;;;;;;4861042;29;20467;-85
2021/06/25 01:32:37;;;;;;;148.60;138.37;;;13.10;99.90;;;;;;4860771;29;20500;-85
2021/06/25 01:35:42;;;;;;;157.43;146.47;;;13.00;99.90;;;;;;4857401;29;20829;-85
2021/06/25 01:38:36;;;;;;;159.33;148.37;;;12.90;99.90;;;;;;4828205;29;20467;-85
2021/06/25 01:41:27;;;;;;;166.13;154.93;;;12.90;99.90;;;;;;4839782;29;20480;-85
2021/06/25 01:44:01;;;;;;;176.57;165.90;;;12.80;99.90;;;;;;4840141;29;20470;-85
2021/06/25 01:46:37;;;;;;;181.60;169.43;;;12.80;99.90;;;;;;4840061;29;20888;-85
2021/06/25 01:49:17;;;;;;;183.87;172.87;;;12.90;99.90;;;;;;4840195;29;20463;-84
2021/06/25 01:52:13;;;;;;;174.63;163.27;;;12.70;99.90;;;;;;4839784;29;20455;-84
2021/06/25 01:54:52;;;;;;;173.77;161.87;;;12.80;99.90;;;;;;4838701;29;20473;-85
2021/06/25 01:57:35;;;;;;;;;;;;;;;;;;;;;
2021/06/25 02:00:25;;;;;;;187.87;175.67;;;12.80;99.90;;;;;;4824395;29;20582;-85
2021/06/25 02:03:22;;;;;;;;;;;;;;;;;;;;;
2021/06/25 02:06:22;;;;;;;;;;;;;;;;;;;;;
2021/06/25 02:09:00;;;;;;;196.90;184.53;;;12.70;99.90;;;;;;4845707;29;20456;-84
2021/06/25 02:11:36;;;;;;;199.60;186.47;;;12.60;99.90;;;;;;4860533;29;20542;-84
2021/06/25 02:14:32;;;;;;;200.77;187.97;;;12.60;99.90;;;;;;4860381;29;20470;-85
2021/06/25 02:17:36;;;;;;;;;;;;;;;;;;;;;
2021/06/25 02:20:16;;;;;;;203.60;191.30;;;12.40;99.90;;;;;;4831067;29;20448;-85
2021/06/25 02:22:45;;;;;;;198.23;186.77;;;12.30;99.90;;;;;;4860229;29;20490;-85
2021/06/25 02:25:15;;;;;;;187.67;176.40;;;12.20;99.90;;;;;;4859424;29;20465;-85
2021/06/25 02:27:54;;;;;;;173.87;163.60;;;12.10;99.90;;;;;;4860310;29;20499;-84
2021/06/25 02:30:27;;;;;;;193.53;181.63;;;12.20;99.90;;;;;;4860318;29;20957;-84
2021/06/25 02:33:01;;;;;;;167.83;157.57;;;11.90;99.90;;;;;;4860128;29;20481;-84
2021/06/25 02:36:01;;;;;;;;;;;;;;;;;;;;;
2021/06/25 02:38:46;;;;;;;;;;;;;;;;;;;;;
2021/06/25 02:41:19;;;;;;;196.57;185.07;;;11.80;99.90;;;;;;4859923;29;20470;-85
2021/06/25 02:44:10;;;;;;;;;;;;;;;;;;;;;
2021/06/25 02:46:43;;;;;;;211.17;200.03;;;11.80;99.90;;;;;;4827627;29;20550;-84
2021/06/25 02:52:41;;;;;;;;;;;;;;;;;;;;;
2021/06/25 02:55:15;;;;;;;193.27;181.33;;;12.20;99.90;;;;;;4849083;29;20456;-84
2021/06/25 03:00:59;;;;;;;216.33;203.97;;;12.30;99.90;;;;;;4861100;29;20894;-84
2021/06/25 03:03:32;;;;;;;199.20;187.30;;;12.30;99.90;;;;;;4863200;29;20869;-84
2021/06/25 03:06:21;;;;;;;;;;;;;;;;;;;;;
2021/06/25 03:08:48;;;;;;;194.07;182.33;;;12.20;99.90;;;;;;4852093;29;20874;-84
2021/06/25 03:11:16;;;;;;;195.80;184.00;;;12.20;99.90;;;;;;4863254;29;20479;-84
2021/06/25 03:13:48;;;;;;;206.20;194.17;;;12.00;99.90;;;;;;4863174;29;21085;-84
2021/06/25 03:16:19;;;;;;;209.93;198.07;;;12.00;99.90;;;;;;4863147;29;20472;-84
2021/06/25 03:18:52;;;;;;;205.37;193.87;;;12.00;99.90;;;;;;4863262;29;20506;-84
2021/06/25 03:21:21;;;;;;;209.10;197.50;;;11.80;99.90;;;;;;4863089;29;20530;-84
2021/06/25 03:23:49;;;;;;;219.83;207.47;;;11.90;99.90;;;;;;4861757;29;21028;-84
2021/06/25 03:26:16;;;;;;;207.60;195.87;;;11.90;99.90;;;;;;4862878;29;20459;-83
2021/06/25 03:28:45;;;;;;;200.17;187.77;;;11.90;99.90;;;;;;4862996;29;20467;-84
2021/06/25 03:31:14;;;;;;;192.40;181.27;;;11.80;99.90;;;;;;4862926;29;20467;-84
2021/06/25 03:33:49;;;;;;;180.47;169.07;;;11.70;99.90;;;;;;4862710;29;20573;-84
2021/06/25 03:36:19;;;;;;;180.73;170.23;;;11.70;99.90;;;;;;4862759;29;20551;-84
2021/06/25 03:38:48;;;;;;;184.77;172.57;;;11.60;99.90;;;;;;4861639;29;20467;-84
2021/06/25 03:41:18;;;;;;;186.27;174.63;;;11.60;99.90;;;;;;4862657;29;20484;-84
2021/06/25 03:43:50;;;;;;;196.43;184.43;;;11.70;99.90;;;;;;4862757;29;20459;-84
2021/06/25 03:46:22;;;;;;;210.77;197.57;;;11.80;99.90;;;;;;4862577;29;20910;-84
2021/06/25 03:48:55;;;;;;;203.73;190.60;;;11.90;99.90;;;;;;4862693;29;20562;-84
2021/06/25 03:51:26;;;;;;;200.73;188.47;;;12.10;99.90;;;;;;4862509;29;20478;-84
2021/06/25 03:53:53;;;;;;;208.50;196.50;;;12.20;99.90;;;;;;4861313;29;20553;-84
2021/06/25 03:56:22;;;;;;;216.23;202.97;;;12.30;99.90;;;;;;4862594;29;20467;-86
2021/06/25 03:58:51;;;;;;;217.47;203.67;;;12.30;99.90;;;;;;4862289;29;20480;-84
2021/06/25 04:01:19;;;;;;;223.10;210.07;;;12.40;99.90;;;;;;4862432;29;20475;-84
2021/06/25 04:03:47;;;;;;;229.03;214.97;;;12.50;99.90;;;;;;4862227;29;20494;-84
2021/06/25 04:06:15;;;;;;;223.23;209.67;;;12.50;99.90;;;;;;4862250;29;20548;-84
2021/06/25 04:08:44;;;;;;;220.90;207.37;;;12.70;99.90;;;;;;4861148;29;20469;-84
2021/06/25 04:11:11;;;;;;;221.87;208.47;;;12.70;99.90;;;;;;4862040;29;20465;-84
2021/06/25 04:13:40;;;;;;;212.83;200.57;;;12.90;99.90;;;;;;4862111;29;20499;-84
2021/06/25 04:16:14;;;;;;;209.27;197.20;;;12.80;99.90;;;;;;4862236;29;20549;-84
2021/06/25 04:18:41;;;;;;;215.83;203.67;;;12.80;99.90;;;;;;4862063;29;20478;-84
2021/06/25 04:21:08;;;;;;;210.33;198.37;;;12.90;99.90;;;;;;4861911;29;20467;-84
2021/06/25 04:23:53;;;;;;;209.50;197.00;;;13.10;99.90;;;;;;4860709;29;20985;-84
2021/06/25 04:26:20;;;;;;;186.07;174.90;;;13.10;99.90;;;;;;4861645;29;20901;-84
2021/06/25 04:28:50;;;;;;;175.53;164.07;;;13.10;99.90;;;;;;4861843;29;20980;-84
2021/06/25 04:31:19;;;;;;;166.90;156.23;;;13.10;99.90;;;;;;4861761;29;20467;-84
2021/06/25 04:33:48;;;;;;;162.63;151.73;;;13.30;99.90;;;;;;4861836;29;20997;-84
2021/06/25 04:36:16;;;;;;;163.37;153.73;;;13.20;99.90;;;;;;4861715;29;20471;-84
2021/06/25 04:38:44;;;;;;;164.60;154.37;;;13.20;99.90;;;;;;4860635;29;20475;-84
2021/06/25 04:41:15;;;;;;;171.03;160.17;;;13.20;99.90;;;;;;4861675;29;20528;-84
2021/06/25 04:43:44;;;;;;;173.23;162.47;;;13.30;99.90;;;;;;4861691;29;20965;-84
2021/06/25 04:46:12;;;;;;;164.87;154.27;;;13.30;99.90;;;;;;4861626;29;20843;-84
2021/06/25 04:48:42;;;;;;;158.40;147.70;;;13.20;99.90;;;;;;4861527;29;21012;-84
2021/06/25 04:51:09;;;;;;;169.83;159.63;;;13.30;99.90;;;;;;4861525;29;20467;-84
2021/06/25 04:53:36;;;;;;;165.20;154.67;;;13.40;99.90;;;;;;4860178;29;20492;-84
2021/06/25 04:56:11;;;;;;;159.43;149.93;;;13.60;99.90;;;;;;4861318;29;20465;-84
2021/06/25 04:58:56;;;;;;;156.10;145.60;;;13.60;99.90;;;;;;4861277;29;21005;-84
2021/06/25 05:01:25;;;;;;;142.53;131.77;;;13.80;99.90;;;;;;4861178;29;20467;-84
2021/06/25 05:03:54;;;;;;;140.07;130.57;;;13.90;99.90;;;;;;4861238;29;20890;-84
2021/06/25 05:06:21;;;;;;;133.80;124.77;;;13.90;99.90;;;;;;4861381;29;20540;-84
2021/06/25 05:08:48;;;;;;;135.37;125.27;;;14.20;99.90;;;;;;4860219;29;20490;-84
2021/06/25 05:11:15;;;;;;;123.37;113.97;;;14.20;99.90;;;;;;4861137;29;20462;-84
2021/06/25 05:13:43;;;;;;;124.53;115.60;;;14.30;99.90;;;;;;4860978;29;20540;-84
2021/06/25 05:16:30;;;;;;;99.60;90.40;;;14.30;99.90;;;;;;4861026;29;21002;-84
2021/06/25 05:18:57;;;;;;;95.83;86.93;;;14.60;99.90;;;;;;4860895;29;20982;-84
2021/06/25 05:21:27;;;;;;;71.27;47.23;;;14.90;99.90;;;;;;4861843;29;20496;-84
2021/06/25 05:24:11;;;;;;;60.73;28.77;;;15.30;99.90;;;;;;4859995;29;20958;-84
2021/06/25 05:26:45;;;;;;;61.93;26.80;;;15.90;99.90;;;;;;4861096;29;20557;-85
2021/06/25 05:29:54;;;;;;;;;;;;;;;;;;;;;
2021/06/25 05:32:22;;;;;;;64.20;23.97;;;17.40;94.00;;;;;;4844032;29;20460;-84
2021/06/25 05:34:58;;;;;;;63.23;23.23;;;17.70;79.30;;;;;;5602166;23;20531;-83
2021/06/25 05:50:53;;;;;;;71.50;25.27;;;19.60;55.20;;;;;;4749402;30;20565;-83
2021/06/25 06:16:42;;;;;;;;;;;;;;;;;;;;;
2021/06/25 06:19:15;;;;;;;65.73;20.80;;;19.50;44.20;;;;;;5061377;28;20201;-84
2021/06/25 06:31:22;;;;;;;65.87;20.37;;;20.10;39.50;;;;;;5131084;28;20467;-86
2021/06/25 06:34:07;;;;;;;;;;;;;;;;;;;;;
2021/06/25 06:40:03;;;;;;;61.87;13.93;;;20.10;27.10;;;;;;5006498;28;20503;-84
2021/06/25 06:42:31;;;;;;;58.60;16.40;;;20.20;25.50;;;;;;5084733;28;20447;-84
2021/06/25 06:44:58;;;;;;;61.37;15.13;;;20.40;27.30;;;;;;5109296;28;21015;-82
2021/06/25 06:47:53;;;;;;;;;;;;;;;;;;;;;
2021/06/25 06:50:51;;;;;;;68.40;22.87;;;20.30;23.70;;;;;;5101705;28;20502;-84
2021/06/25 06:53:20;;;;;;;63.90;22.97;;;20.20;22.50;;;;;;5104637;28;20488;-85
2021/06/25 06:55:48;;;;;;;63.50;21.60;;;20.60;25.70;;;;;;5108519;28;20542;-84
2021/06/25 06:58:16;;;;;;;65.70;22.83;;;20.70;21.50;;;;;;5109137;28;20461;-85
2021/06/25 07:00:43;;;;;;;66.63;24.03;;;20.80;21.20;;;;;;5108905;28;20453;-82
2021/06/25 07:03:10;;;;;;;64.13;20.47;;;20.50;20.10;;;;;;5108888;28;20878;-80
2021/06/25 07:05:37;;;;;;;65.70;24.77;;;20.60;17.60;;;;;;5108746;28;20457;-80
2021/06/25 07:08:04;;;;;;;68.00;21.57;;;20.90;17.40;;;;;;5109538;28;20535;-80
2021/06/25 07:10:33;;;;;;;66.77;21.73;;;20.60;16.80;;;;;;5108343;28;20481;-81
2021/06/25 07:13:00;;;;;;;66.60;23.47;;;20.90;18.50;;;;;;5109842;28;20461;-81
2021/06/25 07:15:27;;;;;;;64.67;21.57;;;21.20;18.00;;;;;;5110270;28;20633;-82
2021/06/25 07:17:53;;;;;;;73.20;21.97;;;21.30;18.30;;;;;;5109797;28;20504;-81
2021/06/25 07:20:20;;;;;;;68.83;20.80;;;21.40;18.50;;;;;;5109438;28;20461;-81
2021/06/25 07:25:19;;;;;;;65.33;16.83;;;21.70;19.90;;;;;;5046224;28;20515;-82
2021/06/25 07:28:02;;;;;;;;;;;;;;;;;;;;;
2021/06/25 07:30:39;;;;;;;;;;;;;;;;;;;;;
2021/06/25 07:33:19;;;;;;;65.67;15.97;;;21.30;17.40;;;;;;5035082;28;20951;-85
2021/06/25 07:36:24;;;;;;;;;;;;;;;;;;;;;
2021/06/25 07:39:12;;;;;;;67.03;17.17;;;21.60;19.10;;;;;;4929586;29;20500;-85
2021/06/25 07:41:54;;;;;;;;;;;;;;;;;;;;;
2021/06/25 07:44:37;;;;;;;66.07;17.77;;;21.80;18.00;;;;;;5011465;28;20498;-84
2021/06/25 07:50:25;;;;;;;64.87;15.03;;;22.00;15.20;;;;;;5032951;28;20511;-84
2021/06/25 07:53:02;;;;;;;65.10;14.13;;;21.80;16.60;;;;;;5035368;28;20441;-84
2021/06/25 07:55:42;;;;;;;63.40;14.30;;;21.80;17.90;;;;;;5033848;28;20544;-85
2021/06/25 07:58:43;;;;;;;;;;;;;;;;;;;;;
2021/06/25 08:02:15;;;;;;;;;;;;;;;;;;;;;
2021/06/25 08:05:25;;;;;;;68.63;15.10;;;21.80;14.90;;;;;;4992186;28;20452;-84
2021/06/25 08:08:01;;;;;;;66.10;14.63;;;21.70;16.70;;;;;;5019716;28;20463;-84
2021/06/25 08:10:32;;;;;;;62.30;14.67;;;22.00;13.90;;;;;;5033614;28;20982;-84
2021/06/25 08:13:08;;;;;;;64.17;15.83;;;22.40;15.10;;;;;;5034942;28;20464;-84
2021/06/25 08:15:48;;;;;;;;;;;;;;;;;;;;;
2021/06/25 08:18:40;;;;;;;;;;;;;;;;;;;;;
2021/06/25 08:21:19;;;;;;;66.43;16.40;;;23.80;10.90;;;;;;5054249;28;20452;-84
2021/06/25 08:24:34;;;;;;;;;;;;;;;;;;;;;
2021/06/25 08:27:12;;;;;;;72.60;33.07;;;24.10;5.00;;;;;;4979421;28;20447;-83
2021/06/25 08:30:02;;;;;;;;;;;;;;;;;;;;;
2021/06/25 08:32:41;;;;;;;;;;;;;;;;;;;;;
2021/06/25 08:35:32;;;;;;;71.70;36.60;;;24.30;5.60;;;;;;5002590;28;20460;-84
2021/06/25 08:38:13;;;;;;;;;;;;;;;;;;;;;
2021/06/25 08:40:41;;;;;;;76.70;33.40;;;24.20;8.70;;;;;;5053027;28;20459;-84
2021/06/25 08:46:48;;;;;;;;;;;;;;;;;;;;;
2021/06/25 08:52:47;;;;;;;70.37;25.10;;;25.20;1.00;;;;;;5052052;28;20456;-84
2021/06/25 08:59:31;;;;;;;;;;;;;;;;;;;;;
2021/06/25 09:05:10;;;;;;;69.30;16.67;;;24.80;1.00;;;;;;4992087;28;20459;-84
2021/06/25 09:15:10;;;;;;;61.60;14.47;;;24.70;1.00;;;;;;4917162;28;20482;-84
2021/06/25 09:18:09;;;;;;;64.90;14.00;;;24.30;1.00;;;;;;4993427;28;20452;-81
2021/06/25 09:20:52;;;;;;;62.77;14.13;;;24.40;1.00;;;;;;5053489;28;20497;-84
2021/06/25 09:23:25;;;;;;;63.07;13.53;;;24.80;1.00;;;;;;5049768;28;20452;-80
2021/06/25 09:25:55;;;;;;;61.27;12.13;;;24.50;1.00;;;;;;5051853;28;20541;-80
2021/06/25 09:28:25;;;;;;;63.07;13.27;;;24.70;1.00;;;;;;5051806;28;20546;-79
2021/06/25 09:30:58;;;;;;;71.60;13.80;;;24.90;1.00;;;;;;5051357;28;20500;-79
2021/06/25 09:33:26;;;;;;;65.27;12.33;;;24.90;1.00;;;;;;5051733;28;20501;-80
2021/06/25 09:35:54;;;;;;;63.40;14.40;;;24.60;1.00;;;;;;5052077;28;20454;-80
2021/06/25 09:38:32;;;;;;;59.60;10.43;;;25.00;1.60;;;;;;5050836;28;20452;-79
2021/06/25 09:40:59;;;;;;;61.70;12.40;;;25.60;1.00;;;;;;5051733;28;20783;-80
2021/06/25 09:43:32;;;;;;;61.50;13.57;;;25.90;1.00;;;;;;5051717;28;20985;-80
2021/06/25 09:46:02;;;;;;;64.57;16.73;;;26.10;1.00;;;;;;5733906;22;20483;-80
2021/06/25 09:48:53;;;;;;;68.60;25.20;;;26.20;1.00;;;;;;5051616;28;20452;-80
2021/06/25 09:51:21;;;;;;;69.70;31.37;;;26.10;1.00;;;;;;5051342;28;20462;-80
2021/06/25 09:54:22;;;;;;;69.80;34.63;;;26.50;1.00;;;;;;5050171;28;20487;-80
2021/06/25 09:56:54;;;;;;;67.57;28.30;;;27.60;1.00;;;;;;4987946;28;20425;-80
2021/06/25 10:02:31;;;;;;;65.33;15.90;;;28.10;1.00;;;;;;5031145;28;20447;-80
2021/06/25 10:05:02;;;;;;;67.40;16.00;;;27.20;1.00;;;;;;5051948;28;20457;-81
2021/06/25 10:07:30;;;;;;;65.40;14.33;;;27.10;1.00;;;;;;5052215;28;20452;-81
2021/06/25 10:10:01;;;;;;;64.97;14.40;;;26.70;1.00;;;;;;5050273;28;20491;-81
2021/06/25 10:12:28;;;;;;;68.13;13.03;;;27.00;1.00;;;;;;5052087;28;20453;-80
2021/06/25 10:14:56;;;;;;;65.13;14.57;;;27.40;1.00;;;;;;5051927;28;20475;-81
2021/06/25 10:17:28;;;;;;;66.00;16.77;;;26.90;1.00;;;;;;5051658;28;20464;-80
2021/06/25 10:20:04;;;;;;;64.80;13.70;;;26.60;1.00;;;;;;5052212;28;20475;-81
2021/06/25 10:22:34;;;;;;;65.43;15.83;;;26.50;1.00;;;;;;5051736;28;20945;-80
2021/06/25 10:25:05;;;;;;;65.07;12.80;;;26.60;1.00;;;;;;5050277;28;20462;-81
2021/06/25 10:27:32;;;;;;;64.83;13.17;;;27.20;1.00;;;;;;5051895;28;20488;-81
2021/06/25 10:30:00;;;;;;;61.90;11.33;;;26.90;1.00;;;;;;5052076;28;20457;-81
2021/06/25 10:32:26;;;;;;;65.73;12.43;;;26.50;1.00;;;;;;5051839;28;20869;-81
2021/06/25 10:34:54;;;;;;;65.07;23.27;;;26.50;1.00;;;;;;5051836;28;20453;-81
2021/06/25 10:37:23;;;;;;;62.63;13.83;;;27.10;1.00;;;;;;5052588;28;20888;-80
2021/06/25 10:39:51;;;;;;;61.90;13.47;;;28.00;1.00;;;;;;5050758;28;20510;-80
2021/06/25 10:42:39;;;;;;;62.90;13.10;;;28.20;1.00;;;;;;5052381;28;20453;-83
2021/06/25 10:45:08;;;;;;;63.10;11.00;;;28.30;1.00;;;;;;5052503;28;20461;-83
2021/06/25 10:47:35;;;;;;;64.47;12.53;;;28.20;1.00;;;;;;5052000;28;21086;-85
2021/06/25 11:30:42;;;;;;;;;;;;;;;;;;;;;
2021/06/25 11:35:41;;;;;;;65.50;12.53;;;27.60;1.00;;;;;;5077312;22;20477;-79
2021/06/25 11:38:08;;;;;;;65.80;13.90;;;28.00;1.00;;;;;;5055522;28;20848;-82
2021/06/25 11:40:48;;;;;;;64.83;13.20;;;28.00;1.00;;;;;;5054278;28;20451;-81
2021/06/25 11:43:15;;;;;;;67.73;14.87;;;28.30;1.00;;;;;;5055427;28;20537;-83
2021/06/25 11:45:45;;;;;;;67.97;14.73;;;27.60;1.00;;;;;;5055006;28;20479;-77
2021/06/25 11:48:13;;;;;;;64.80;14.23;;;27.20;1.00;;;;;;5055194;28;20440;-80
2021/06/25 11:50:42;;;;;;;63.80;13.70;;;26.70;1.00;;;;;;5055202;28;20502;-80
2021/06/25 11:53:09;;;;;;;62.37;12.90;;;27.30;1.00;;;;;;5055121;28;20967;-82
2021/06/25 11:55:36;;;;;;;63.37;12.60;;;28.20;1.00;;;;;;5053714;28;20550;-81
2021/06/25 11:58:03;;;;;;;63.90;13.03;;;28.30;1.00;;;;;;5054530;28;20447;-81
2021/06/25 12:00:34;;;;;;;63.40;13.13;;;28.20;1.00;;;;;;5055327;28;20533;-81
2021/06/25 12:03:03;;;;;;;66.83;19.60;;;27.70;1.00;;;;;;5056334;28;20461;-79
2021/06/25 12:05:32;;;;;;;65.70;13.53;;;27.00;1.00;;;;;;5055302;28;20971;-83
2021/06/25 12:08:04;;;;;;;66.83;13.40;;;28.20;1.00;;;;;;5054582;28;20490;-79
2021/06/25 12:10:32;;;;;;;63.27;12.67;;;28.90;1.00;;;;;;5053597;28;20520;-82
2021/06/25 12:13:00;;;;;;;65.03;12.00;;;28.80;1.00;;;;;;5054616;28;20448;-83
2021/06/25 12:15:28;;;;;;;64.07;12.50;;;30.30;1.00;;;;;;5055001;28;20462;-80
2021/06/25 12:17:57;;;;;;;64.37;14.40;;;30.00;1.00;;;;;;5054966;28;20451;-79
2021/06/25 12:20:26;;;;;;;64.63;16.10;;;30.20;1.00;;;;;;5054661;28;20455;-79
2021/06/25 12:22:55;;;;;;;68.37;22.40;;;29.90;1.00;;;;;;5054637;28;20937;-80
2021/06/25 12:25:33;;;;;;;69.23;19.67;;;28.50;1.00;;;;;;5053211;28;20969;-79
2021/06/25 12:28:06;;;;;;;65.83;15.03;;;28.10;1.00;;;;;;5054401;28;20479;-81
2021/06/25 12:30:34;;;;;;;66.47;15.23;;;27.40;1.00;;;;;;5054705;28;20437;-81
2021/06/25 12:33:03;;;;;;;65.93;14.33;;;27.10;1.00;;;;;;5054453;28;20535;-81
2021/06/25 12:35:31;;;;;;;66.00;13.63;;;26.70;1.00;;;;;;5054168;28;20457;-77
2021/06/25 12:37:58;;;;;;;63.33;12.93;;;27.00;1.00;;;;;;5054279;28;20460;-76
2021/06/25 12:40:50;;;;;;;67.70;16.77;;;26.50;1.00;;;;;;5052901;28;20938;-76
2021/06/25 12:43:20;;;;;;;68.00;20.63;;;26.70;1.00;;;;;;5054283;28;20455;-77
2021/06/25 12:45:49;;;;;;;66.80;25.70;;;27.00;1.00;;;;;;5054133;28;20513;-75
2021/06/25 12:48:19;;;;;;;67.07;29.10;;;27.10;1.00;;;;;;5054179;28;20452;-76
2021/06/25 12:50:47;;;;;;;66.40;29.60;;;27.90;1.00;;;;;;5053987;28;20456;-78
2021/06/25 12:53:15;;;;;;;68.90;31.50;;;27.50;1.00;;;;;;5053840;28;20459;-76
2021/06/25 12:55:44;;;;;;;65.60;22.13;;;28.60;1.00;;;;;;5053458;28;21044;-76
2021/06/25 12:58:13;;;;;;;61.87;12.27;;;28.90;1.00;;;;;;5053888;28;20480;-76
2021/06/25 13:00:41;;;;;;;64.47;13.50;;;29.60;1.00;;;;;;5053834;28;20462;-76
2021/06/25 13:03:09;;;;;;;63.63;12.17;;;30.00;1.00;;;;;;5053717;28;20467;-77
2021/06/25 13:05:37;;;;;;;65.13;13.80;;;30.00;1.00;;;;;;5053684;28;20452;-76
2021/06/25 13:08:18;;;;;;;65.40;14.00;;;29.00;1.00;;;;;;5053934;28;21003;-79
2021/06/25 13:10:52;;;;;;;64.70;13.23;;;28.90;1.00;;;;;;5053521;28;20428;-84
2021/06/25 13:13:35;;;;;;;;;;;;;;;;;;;;;
2021/06/25 13:16:56;;;;;;;;;;;;;;;;;;;;;
2021/06/25 13:19:38;;;;;;;;;;;;;;;;;;;;;
2021/06/25 14:05:12;;;;;;;60.20;10.70;;;30.00;1.00;;;;;;4825776;29;20455;-83
2021/06/25 14:07:54;;;;;;;61.77;12.00;;;30.80;1.00;;;;;;4910771;29;20281;-83
2021/06/25 14:10:22;;;;;;;62.87;14.53;;;31.60;1.00;;;;;;4932901;28;20454;-80
2021/06/25 14:12:48;;;;;;;64.50;17.90;;;31.30;1.00;;;;;;4970766;28;20450;-80
2021/06/25 14:15:17;;;;;;;68.43;22.00;;;31.40;1.00;;;;;;5008384;28;20510;-81
2021/06/25 14:17:46;;;;;;;69.50;28.67;;;30.40;1.00;;;;;;5031215;28;20501;-80
2021/06/25 14:20:15;;;;;;;72.37;30.17;;;29.60;1.00;;;;;;5031049;28;20461;-81
2021/06/25 14:22:42;;;;;;;70.67;25.93;;;29.60;1.00;;;;;;5031286;28;20687;-80
2021/06/25 14:25:10;;;;;;;73.10;20.97;;;29.10;1.00;;;;;;5030014;28;20551;-79
2021/06/25 14:27:40;;;;;;;64.37;13.27;;;28.20;1.00;;;;;;5031227;28;20552;-80
2021/06/25 14:30:09;;;;;;;63.70;12.10;;;28.80;1.00;;;;;;5031279;28;20470;-80
2021/06/25 14:32:36;;;;;;;65.53;12.00;;;29.60;1.00;;;;;;5031112;28;20471;-80
2021/06/25 14:35:04;;;;;;;66.00;12.00;;;30.30;1.00;;;;;;5031102;28;20467;-80
2021/06/25 14:37:52;;;;;;;66.20;13.70;;;30.00;1.00;;;;;;5034441;28;20860;-81
2021/06/25 14:40:18;;;;;;;65.90;15.77;;;29.90;1.00;;;;;;5019170;28;20479;-81
2021/06/25 14:42:59;;;;;;;66.80;17.63;;;30.50;1.00;;;;;;5056499;28;20513;-86
2021/06/25 14:46:17;;;;;;;;;;;;;;;;;;;;;
2021/06/25 14:49:15;;;;;;;67.77;21.27;;;32.30;1.00;;;;;;4974583;28;20854;-85
2021/06/25 14:51:50;;;;;;;70.20;27.23;;;32.00;1.00;;;;;;4975256;28;20434;-85
2021/06/25 14:54:20;;;;;;;66.93;22.77;;;30.30;1.00;;;;;;5008871;28;20561;-84
2021/06/25 14:56:47;;;;;;;71.27;25.67;;;30.90;1.00;;;;;;5056668;28;20495;-83
2021/06/25 14:59:13;;;;;;;69.60;28.23;;;31.50;1.00;;;;;;5047821;28;20896;-81
2021/06/25 15:01:40;;;;;;;71.97;30.60;;;31.40;1.00;;;;;;5056167;28;20546;-80
2021/06/25 15:06:34;;;;;;;68.40;28.20;;;30.50;1.00;;;;;;5100566;22;20488;-84
2021/06/25 15:09:06;;;;;;;70.17;29.77;;;30.70;1.00;;;;;;5094991;28;20218;-82
2021/06/25 15:11:35;;;;;;;69.33;29.20;;;31.40;1.00;;;;;;5096132;28;20815;-81
2021/06/25 15:14:01;;;;;;;71.17;32.23;;;31.10;1.00;;;;;;5095856;28;20459;-82
2021/06/25 15:16:28;;;;;;;69.60;30.27;;;31.30;1.00;;;;;;5083582;28;20924;-79
2021/06/25 15:18:55;;;;;;;70.73;31.53;;;31.40;1.00;;;;;;5096355;28;20425;-80
2021/06/25 15:21:21;;;;;;;72.97;35.00;;;31.80;1.00;;;;;;5085640;28;20447;-78
2021/06/25 15:23:48;;;;;;;74.03;36.20;;;30.90;1.00;;;;;;5074467;28;20425;-77
2021/06/25 15:26:20;;;;;;;70.50;33.30;;;30.20;1.00;;;;;;5075756;28;20457;-78
2021/06/25 15:28:48;;;;;;;69.43;26.90;;;30.00;1.00;;;;;;5075541;28;20518;-79
2021/06/25 15:31:15;;;;;;;75.63;29.30;;;30.50;1.00;;;;;;5075427;28;20460;-80
2021/06/25 15:33:42;;;;;;;70.93;27.40;;;30.50;1.00;;;;;;5083932;28;20458;-84
2021/06/25 15:36:08;;;;;;;68.87;26.50;;;30.90;1.00;;;;;;5076250;28;20450;-79
2021/06/25 15:38:37;;;;;;;67.07;25.13;;;30.60;1.00;;;;;;5082707;28;20456;-81
2021/06/25 15:41:05;;;;;;;68.13;28.07;;;30.50;1.00;;;;;;5095193;28;20427;-77
2021/06/25 15:43:32;;;;;;;69.47;28.43;;;30.30;1.00;;;;;;5075342;28;20450;-82
2021/06/25 15:46:00;;;;;;;70.37;27.60;;;31.10;1.00;;;;;;5075299;28;20425;-78
2021/06/25 15:48:27;;;;;;;74.17;29.70;;;31.40;1.00;;;;;;5081197;28;20499;-80
2021/06/25 15:50:54;;;;;;;71.80;28.10;;;31.90;1.00;;;;;;5095438;28;20464;-85
2021/06/25 15:53:20;;;;;;;70.60;29.83;;;30.80;1.00;;;;;;5088100;28;20454;-78
2021/06/25 15:55:48;;;;;;;70.67;28.60;;;30.40;1.00;;;;;;5074869;28;20425;-86
2021/06/25 15:58:15;;;;;;;69.07;22.70;;;30.00;1.00;;;;;;5078656;28;20455;-79
2021/06/25 16:00:42;;;;;;;68.83;27.60;;;30.20;1.00;;;;;;5086095;28;20459;-76
2021/06/25 16:03:10;;;;;;;66.90;19.50;;;29.90;1.00;;;;;;5075025;28;20456;-80
2021/06/25 16:05:37;;;;;;;66.43;22.23;;;30.50;1.00;;;;;;5074843;28;20982;-79
2021/06/25 16:08:05;;;;;;;67.23;23.07;;;30.30;1.00;;;;;;5074880;28;20461;-83
2021/06/25 16:10:35;;;;;;;68.23;26.03;;;31.00;1.00;;;;;;5080969;28;20433;-78
2021/06/25 16:13:03;;;;;;;69.20;24.50;;;30.20;1.00;;;;;;5086265;28;20428;-79
2021/06/25 16:15:30;;;;;;;66.70;24.87;;;30.50;1.00;;;;;;5094977;28;20432;-78
2021/06/25 16:17:58;;;;;;;69.50;28.70;;;31.40;1.00;;;;;;5091057;28;20429;-78
2021/06/25 16:20:27;;;;;;;67.10;26.37;;;29.60;1.00;;;;;;5092581;28;20458;-78
2021/06/25 16:22:54;;;;;;;68.70;26.43;;;30.30;1.00;;;;;;5082139;28;20485;-77
2021/06/25 16:25:20;;;;;;;72.10;26.97;;;30.50;1.00;;;;;;5079038;28;20821;-77
2021/06/25 16:27:47;;;;;;;67.70;25.57;;;30.90;1.00;;;;;;5082817;28;20449;-78
2021/06/25 16:30:15;;;;;;;68.90;26.97;;;31.10;1.00;;;;;;5086631;28;20454;-83
2021/06/25 16:32:42;;;;;;;81.93;52.35;;;31.70;1.00;;;;;;5093465;28;20453;-81
2021/06/25 16:35:09;;;;;;;71.83;34.13;;;30.60;1.00;;;;;;5094717;28;20203;-79
2021/06/25 16:37:37;;;;;;;68.30;29.70;;;30.60;1.00;;;;;;5094578;28;20450;-79
2021/06/25 16:40:05;;;;;;;69.20;31.20;;;30.40;1.00;;;;;;5093225;28;20424;-80
2021/06/25 16:42:32;;;;;;;69.67;29.50;;;30.60;1.00;;;;;;5094361;28;20462;-84
2021/06/25 16:44:59;;;;;;;68.23;28.90;;;30.60;1.00;;;;;;5094410;28;20519;-79
2021/06/25 16:47:26;;;;;;;67.83;28.30;;;30.50;1.00;;;;;;5094252;28;20488;-80
2021/06/25 16:49:52;;;;;;;74.90;26.37;;;30.90;1.00;;;;;;5093531;28;20454;-80
2021/06/25 16:52:19;;;;;;;66.90;25.10;;;31.40;1.00;;;;;;5094186;28;20428;-78
2021/06/25 16:54:48;;;;;;;70.83;28.63;;;30.90;1.00;;;;;;5092786;28;20796;-81
2021/06/25 16:57:14;;;;;;;66.00;22.03;;;30.00;1.00;;;;;;5094106;28;20919;-78
2021/06/25 16:59:41;;;;;;;63.37;17.33;;;29.60;1.00;;;;;;5093383;28;20429;-79